Time;durP1;ratioP1;P1;durP2;ratioP2;P2;SDS_P1;SDS_P2;PMS_P1;PMS_P2;Temp;Humidity;BMP_temperature;BMP_pressure;BME280_temperature;BME280_humidity;BME280_pressure;Samples;Min_cycle;Max_cycle;Signal;HPM_P1;HPM_P2
2022/09/01 00:00:40;;;;;;;6.05;1.90;;;;;;;;;;4985461;28;20034;-73
2022/09/01 00:03:08;;;;;;;5.55;1.92;;;;;;;;;;4972089;28;20177;-73
2022/09/01 00:05:35;;;;;;;5.93;1.80;;;;;;;;;;4993586;28;20043;-73
2022/09/01 00:08:01;;;;;;;5.60;1.73;;;;;;;;;;4993648;28;20042;-73
2022/09/01 00:10:29;;;;;;;5.00;1.70;;;;;;;;;;4985923;28;20045;-73
2022/09/01 00:12:55;;;;;;;4.88;1.73;;;;;;;;;;4969205;28;20512;-73
2022/09/01 00:15:21;;;;;;;4.93;1.63;;;;;;;;;;4986957;28;20049;-72
2022/09/01 00:17:47;;;;;;;4.40;1.80;;;;;;;;;;4985701;28;20058;-73
2022/09/01 00:20:13;;;;;;;5.97;1.60;;;;;;;;;;4986853;28;20097;-73
2022/09/01 00:22:39;;;;;;;5.22;2.10;;;;;;;;;;4986994;28;20082;-73
2022/09/01 00:25:06;;;;;;;5.55;1.90;;;;;;;;;;4969842;28;20054;-73
2022/09/01 00:27:32;;;;;;;5.13;1.70;;;;;;;;;;4987433;28;20046;-73
2022/09/01 00:29:59;;;;;;;4.43;1.80;;;;;;;;;;4966991;28;20042;-73
2022/09/01 00:32:25;;;;;;;4.85;1.50;;;;;;;;;;4985368;28;20050;-73
2022/09/01 00:34:51;;;;;;;4.75;1.75;;;;;;;;;;4986635;28;20505;-72
2022/09/01 00:37:17;;;;;;;3.78;1.60;;;;;;;;;;4987201;28;20092;-73
2022/09/01 00:39:43;;;;;;;5.82;1.90;;;;;;;;;;4992721;28;20052;-73
2022/09/01 00:42:10;;;;;;;8.00;1.95;;;;;;;;;;4992870;28;20042;-73
2022/09/01 00:44:37;;;;;;;4.85;1.45;;;;;;;;;;4992398;28;20053;-72
2022/09/01 00:47:05;;;;;;;6.70;1.90;;;;;;;;;;4992687;28;20108;-73
2022/09/01 00:49:32;;;;;;;5.88;1.65;;;;;;;;;;4973940;28;20050;-73
2022/09/01 00:52:04;;;;;;;5.35;1.58;;;;;;;;;;4990964;28;20046;-73
2022/09/01 00:54:32;;;;;;;5.80;1.80;;;;;;;;;;4994464;28;20050;-72
2022/09/01 00:56:58;;;;;;;3.60;1.60;;;;;;;;;;4990887;28;20046;-73
2022/09/01 00:59:25;;;;;;;6.18;1.70;;;;;;;;;;4993514;28;20042;-73
2022/09/01 01:01:52;;;;;;;6.18;1.52;;;;;;;;;;4992977;28;20043;-72
2022/09/01 01:04:18;;;;;;;7.35;1.50;;;;;;;;;;4992352;28;20524;-73
2022/09/01 01:06:48;;;;;;;5.68;1.63;;;;;;;;;;4992285;28;20410;-73
2022/09/01 01:09:15;;;;;;;8.65;1.90;;;;;;;;;;4970191;28;20544;-73
2022/09/01 01:11:45;;;;;;;3.75;1.60;;;;;;;;;;4991439;28;20046;-73
2022/09/01 01:14:11;;;;;;;4.03;1.60;;;;;;;;;;4992865;28;20173;-73
2022/09/01 01:16:43;;;;;;;5.47;1.58;;;;;;;;;;4989675;28;20053;-73
2022/09/01 01:25:07;;;;;;;3.90;1.75;;;;;;;;;;4980972;28;20438;-73
2022/09/01 01:27:33;;;;;;;3.38;1.60;;;;;;;;;;4971846;28;20398;-73
2022/09/01 01:30:00;;;;;;;4.70;1.90;;;;;;;;;;4991555;28;20465;-73
2022/09/01 01:32:28;;;;;;;4.03;1.58;;;;;;;;;;4992771;28;20395;-73
2022/09/01 01:34:55;;;;;;;5.47;1.58;;;;;;;;;;4991982;28;20054;-73
2022/09/01 01:37:23;;;;;;;5.85;1.63;;;;;;;;;;4993510;28;20054;-73
2022/09/01 01:39:49;;;;;;;4.50;1.80;;;;;;;;;;4990748;28;20383;-73
2022/09/01 01:42:15;;;;;;;6.25;1.80;;;;;;;;;;4988766;28;20031;-73
2022/09/01 01:44:41;;;;;;;4.45;2.00;;;;;;;;;;4973363;28;20053;-73
2022/09/01 01:47:11;;;;;;;5.43;1.90;;;;;;;;;;4991163;28;20490;-73
2022/09/01 01:49:42;;;;;;;4.57;1.70;;;;;;;;;;4990711;28;20088;-73
2022/09/01 01:52:09;;;;;;;6.55;1.77;;;;;;;;;;4991239;28;20113;-74
2022/09/01 01:54:36;;;;;;;5.35;1.67;;;;;;;;;;4992321;28;20088;-73
2022/09/01 01:57:03;;;;;;;4.15;1.50;;;;;;;;;;4983459;28;20050;-73
2022/09/01 01:59:29;;;;;;;6.95;1.90;;;;;;;;;;4991301;28;20049;-73
2022/09/01 02:01:55;;;;;;;4.28;1.90;;;;;;;;;;4990244;28;20134;-73
2022/09/01 02:04:21;;;;;;;4.80;1.90;;;;;;;;;;4991477;28;20038;-74
2022/09/01 02:06:48;;;;;;;5.53;2.00;;;;;;;;;;4990355;28;20160;-73
2022/09/01 02:09:16;;;;;;;5.10;1.83;;;;;;;;;;4988417;28;20053;-74
2022/09/01 02:11:44;;;;;;;4.05;1.63;;;;;;;;;;4979702;28;20069;-73
2022/09/01 02:14:12;;;;;;;6.05;1.77;;;;;;;;;;4992349;28;20054;-72
2022/09/01 02:16:38;;;;;;;6.97;2.10;;;;;;;;;;4991542;28;20386;-73
2022/09/01 02:19:06;;;;;;;5.30;2.00;;;;;;;;;;4990611;28;20049;-73
2022/09/01 02:21:32;;;;;;;6.28;2.15;;;;;;;;;;4991979;28;20046;-73
2022/09/01 02:24:01;;;;;;;4.47;1.80;;;;;;;;;;4974626;28;20061;-72
2022/09/01 02:26:38;;;;;;;6.20;1.90;;;;;;;;;;4985852;28;20046;-73
2022/09/01 02:29:05;;;;;;;4.75;1.90;;;;;;;;;;4973906;28;20042;-73
2022/09/01 02:31:34;;;;;;;4.13;1.90;;;;;;;;;;4992831;28;20116;-73
2022/09/01 02:34:02;;;;;;;4.35;1.73;;;;;;;;;;4981351;28;20137;-73
2022/09/01 02:36:31;;;;;;;4.82;1.90;;;;;;;;;;4991081;28;20042;-73
2022/09/01 02:38:57;;;;;;;5.97;1.90;;;;;;;;;;4991441;28;20388;-73
2022/09/01 02:41:27;;;;;;;3.90;1.70;;;;;;;;;;4990452;28;20042;-73
2022/09/01 02:43:53;;;;;;;5.82;2.10;;;;;;;;;;4988946;28;20421;-73
2022/09/01 02:46:22;;;;;;;5.47;1.98;;;;;;;;;;4974094;28;20046;-73
2022/09/01 02:48:50;;;;;;;5.40;2.10;;;;;;;;;;4991227;28;20513;-73
2022/09/01 02:51:17;;;;;;;6.68;2.10;;;;;;;;;;4972718;28;20046;-73
2022/09/01 02:53:45;;;;;;;6.05;2.20;;;;;;;;;;4991921;28;20043;-73
2022/09/01 02:56:13;;;;;;;5.57;2.00;;;;;;;;;;4991655;28;20121;-73
2022/09/01 02:58:44;;;;;;;5.95;2.13;;;;;;;;;;4991900;28;20113;-73
2022/09/01 03:01:13;;;;;;;5.53;2.15;;;;;;;;;;4991460;28;20061;-73
2022/09/01 03:03:39;;;;;;;6.47;2.28;;;;;;;;;;4992314;28;20046;-74
2022/09/01 03:06:09;;;;;;;5.00;2.15;;;;;;;;;;4989154;28;20072;-73
2022/09/01 03:08:38;;;;;;;4.20;2.10;;;;;;;;;;4990390;28;20046;-73
2022/09/01 03:11:06;;;;;;;5.38;2.13;;;;;;;;;;4991159;28;20452;-73
2022/09/01 03:13:32;;;;;;;4.32;1.90;;;;;;;;;;4991664;28;20046;-73
2022/09/01 03:15:58;;;;;;;4.93;2.30;;;;;;;;;;4961887;28;20503;-73
2022/09/01 03:18:24;;;;;;;6.93;2.30;;;;;;;;;;4992890;28;20068;-73
2022/09/01 03:20:51;;;;;;;4.20;1.98;;;;;;;;;;4995516;28;20057;-73
2022/09/01 03:23:17;;;;;;;5.10;2.25;;;;;;;;;;4976439;28;20501;-73
2022/09/01 03:25:44;;;;;;;5.20;2.05;;;;;;;;;;4993069;28;20571;-73
2022/09/01 03:28:11;;;;;;;6.60;2.22;;;;;;;;;;4989581;28;20137;-73
2022/09/01 03:30:41;;;;;;;6.78;2.10;;;;;;;;;;4993074;28;20141;-73
2022/09/01 03:33:07;;;;;;;4.20;2.00;;;;;;;;;;4994513;28;20070;-73
2022/09/01 03:35:33;;;;;;;7.63;2.08;;;;;;;;;;4989682;28;20445;-73
2022/09/01 03:38:00;;;;;;;7.60;2.10;;;;;;;;;;4991185;28;20055;-73
2022/09/01 03:40:31;;;;;;;6.10;2.15;;;;;;;;;;4992064;28;20085;-73
2022/09/01 03:42:57;;;;;;;7.87;2.37;;;;;;;;;;4993088;28;20046;-73
2022/09/01 03:45:24;;;;;;;4.32;2.10;;;;;;;;;;4993256;28;20038;-74
2022/09/01 03:47:51;;;;;;;6.00;2.30;;;;;;;;;;4992393;28;20042;-72
2022/09/01 03:50:21;;;;;;;5.82;2.00;;;;;;;;;;4990245;28;20077;-72
2022/09/01 03:52:49;;;;;;;6.75;2.15;;;;;;;;;;4989962;28;20046;-73
2022/09/01 03:55:22;;;;;;;5.88;2.22;;;;;;;;;;4991282;28;20042;-73
2022/09/01 03:57:48;;;;;;;7.65;2.28;;;;;;;;;;4995406;28;20082;-73
2022/09/01 04:00:19;;;;;;;6.97;2.10;;;;;;;;;;4993188;28;20050;-72
2022/09/01 04:02:47;;;;;;;6.47;2.50;;;;;;;;;;4995338;28;20049;-73
2022/09/01 04:05:13;;;;;;;6.85;2.20;;;;;;;;;;4977743;28;20042;-73
2022/09/01 04:07:39;;;;;;;5.05;2.17;;;;;;;;;;4991673;28;20389;-73
2022/09/01 04:10:10;;;;;;;6.25;1.95;;;;;;;;;;4991988;28;20043;-74
2022/09/01 04:12:37;;;;;;;4.40;2.15;;;;;;;;;;4992522;28;20039;-73
2022/09/01 04:15:04;;;;;;;6.13;2.22;;;;;;;;;;4994544;28;20049;-73
2022/09/01 04:20:18;;;;;;;5.70;2.28;;;;;;;;;;4989465;28;20050;-73
2022/09/01 04:22:46;;;;;;;6.03;2.13;;;;;;;;;;4990251;28;20043;-73
2022/09/01 04:25:12;;;;;;;5.43;2.13;;;;;;;;;;4994529;28;20413;-73
2022/09/01 04:27:39;;;;;;;6.53;2.13;;;;;;;;;;4975202;28;20125;-73
2022/09/01 04:30:09;;;;;;;4.88;2.10;;;;;;;;;;4993230;28;20057;-74
2022/09/01 04:32:36;;;;;;;5.63;2.05;;;;;;;;;;4994180;28;20049;-73
2022/09/01 04:35:03;;;;;;;7.30;2.38;;;;;;;;;;4991097;28;20050;-73
2022/09/01 04:37:29;;;;;;;4.97;2.10;;;;;;;;;;4970977;28;20042;-73
2022/09/01 04:39:56;;;;;;;5.05;2.10;;;;;;;;;;4991811;28;20416;-73
2022/09/01 04:42:23;;;;;;;5.95;2.10;;;;;;;;;;4990941;28;20038;-73
2022/09/01 04:44:50;;;;;;;7.28;2.28;;;;;;;;;;4991626;28;20057;-73
2022/09/01 04:47:18;;;;;;;6.47;2.28;;;;;;;;;;4979138;28;20058;-73
2022/09/01 04:49:46;;;;;;;7.78;2.17;;;;;;;;;;4990091;28;20417;-74
2022/09/01 04:52:13;;;;;;;6.53;2.20;;;;;;;;;;4991555;28;20054;-74
2022/09/01 04:54:39;;;;;;;5.40;2.10;;;;;;;;;;4993064;28;20169;-74
2022/09/01 04:57:05;;;;;;;5.85;2.20;;;;;;;;;;4982193;28;20531;-73
2022/09/01 04:59:32;;;;;;;6.40;2.38;;;;;;;;;;4970976;28;20192;-72
2022/09/01 05:01:59;;;;;;;6.03;2.30;;;;;;;;;;4974586;28;20058;-73
2022/09/01 05:04:27;;;;;;;4.95;2.08;;;;;;;;;;4989968;28;20409;-72
2022/09/01 05:06:56;;;;;;;5.50;2.10;;;;;;;;;;4985833;28;20057;-73
2022/09/01 05:09:24;;;;;;;6.45;2.28;;;;;;;;;;4989135;28;20054;-72
2022/09/01 05:11:50;;;;;;;4.70;2.30;;;;;;;;;;4991404;28;20487;-74
2022/09/01 05:14:21;;;;;;;5.78;2.15;;;;;;;;;;4990708;28;20050;-73
2022/09/01 05:16:48;;;;;;;5.13;2.38;;;;;;;;;;4951200;28;20123;-73
2022/09/01 05:19:16;;;;;;;5.53;2.25;;;;;;;;;;4992735;28;20054;-73
2022/09/01 05:21:44;;;;;;;4.47;2.08;;;;;;;;;;4984485;28;20469;-73
2022/09/01 05:24:10;;;;;;;5.85;2.10;;;;;;;;;;4992532;28;20046;-73
2022/09/01 05:26:39;;;;;;;6.88;2.30;;;;;;;;;;4984920;28;20062;-73
2022/09/01 05:29:12;;;;;;;5.78;2.00;;;;;;;;;;4987342;28;20123;-73
2022/09/01 05:31:39;;;;;;;6.38;2.30;;;;;;;;;;4987768;28;20418;-73
2022/09/01 05:34:08;;;;;;;5.38;2.00;;;;;;;;;;4975295;28;20057;-73
2022/09/01 05:36:35;;;;;;;8.25;2.35;;;;;;;;;;4990215;28;20571;-72
2022/09/01 05:39:01;;;;;;;6.15;1.88;;;;;;;;;;4991702;28;20042;-73
2022/09/01 05:41:28;;;;;;;9.13;2.20;;;;;;;;;;4982950;28;20050;-73
2022/09/01 05:43:54;;;;;;;6.43;1.85;;;;;;;;;;4990820;28;20054;-72
2022/09/01 05:46:22;;;;;;;6.20;1.65;;;;;;;;;;4988244;28;20046;-72
2022/09/01 05:48:50;;;;;;;6.30;1.70;;;;;;;;;;4992190;28;20378;-73
2022/09/01 05:51:18;;;;;;;7.07;1.77;;;;;;;;;;4988717;28;20038;-74
2022/09/01 05:53:45;;;;;;;5.45;1.80;;;;;;;;;;4991525;28;20081;-74
2022/09/01 05:56:13;;;;;;;5.18;1.95;;;;;;;;;;4992406;28;20042;-74
2022/09/01 05:58:43;;;;;;;8.52;2.00;;;;;;;;;;4991842;28;20099;-73
2022/09/01 06:01:11;;;;;;;6.70;2.08;;;;;;;;;;4989995;28;20448;-74
2022/09/01 06:03:39;;;;;;;6.05;1.98;;;;;;;;;;4983203;28;20081;-74
2022/09/01 06:06:11;;;;;;;5.90;1.90;;;;;;;;;;4985663;28;20790;-74
2022/09/01 06:08:37;;;;;;;5.50;1.83;;;;;;;;;;4990558;28;20046;-72
2022/09/01 06:11:11;;;;;;;6.13;2.70;;;;;;;;;;4969417;28;20050;-71
2022/09/01 06:13:40;;;;;;;5.93;1.65;;;;;;;;;;4991652;28;20081;-72
2022/09/01 06:16:08;;;;;;;4.90;1.90;;;;;;;;;;4975477;28;20060;-72
2022/09/01 06:18:34;;;;;;;6.65;1.90;;;;;;;;;;4975203;28;20471;-69
2022/09/01 06:21:03;;;;;;;5.78;1.90;;;;;;;;;;4983770;28;20086;-71
2022/09/01 06:23:30;;;;;;;6.78;2.10;;;;;;;;;;4988301;28;20524;-71
2022/09/01 06:25:57;;;;;;;7.57;1.58;;;;;;;;;;4989367;28;20089;-71
2022/09/01 06:28:23;;;;;;;5.50;1.40;;;;;;;;;;4988300;28;20105;-71
2022/09/01 06:30:50;;;;;;;4.65;1.60;;;;;;;;;;4988743;28;20089;-71
2022/09/01 06:33:16;;;;;;;6.13;1.77;;;;;;;;;;4972416;28;20056;-72
2022/09/01 06:35:43;;;;;;;6.13;1.67;;;;;;;;;;4987992;28;20457;-70
2022/09/01 06:38:10;;;;;;;6.03;2.15;;;;;;;;;;4987650;28;20050;-71
2022/09/01 06:40:39;;;;;;;5.30;1.60;;;;;;;;;;4966470;28;20046;-71
2022/09/01 06:43:08;;;;;;;4.45;1.60;;;;;;;;;;4958330;28;20087;-71
2022/09/01 06:45:39;;;;;;;7.22;1.70;;;;;;;;;;4979740;28;20051;-71
2022/09/01 06:48:05;;;;;;;5.22;1.52;;;;;;;;;;4993932;28;20113;-73
2022/09/01 06:50:32;;;;;;;5.32;1.80;;;;;;;;;;4995607;28;20054;-71
2022/09/01 06:53:04;;;;;;;5.07;1.60;;;;;;;;;;4995549;28;20057;-71
2022/09/01 06:55:35;;;;;;;7.68;1.83;;;;;;;;;;4992786;28;20505;-71
2022/09/01 06:58:05;;;;;;;11.10;1.90;;;;;;;;;;4993847;28;20089;-70
2022/09/01 07:00:31;;;;;;;5.85;1.85;;;;;;;;;;4994170;28;20421;-71
2022/09/01 07:02:57;;;;;;;4.63;1.85;;;;;;;;;;4995220;28;20078;-70
2022/09/01 07:05:24;;;;;;;5.70;1.98;;;;;;;;;;4993772;28;20046;-72
2022/09/01 07:07:54;;;;;;;5.13;1.63;;;;;;;;;;4995102;28;20043;-73
2022/09/01 07:10:24;;;;;;;6.30;1.87;;;;;;;;;;4994020;28;20077;-72
2022/09/01 07:12:51;;;;;;;6.20;1.83;;;;;;;;;;4995682;28;20073;-72
2022/09/01 07:15:18;;;;;;;5.13;1.52;;;;;;;;;;4996720;28;20061;-73
2022/09/01 07:17:51;;;;;;;4.00;1.45;;;;;;;;;;4995951;28;20107;-72
2022/09/01 07:20:20;;;;;;;5.53;1.70;;;;;;;;;;4996060;28;20391;-72
2022/09/01 07:22:46;;;;;;;6.53;1.67;;;;;;;;;;4994957;28;20054;-72
2022/09/01 07:25:12;;;;;;;5.70;1.80;;;;;;;;;;4995059;28;20085;-72
2022/09/01 07:27:47;;;;;;;5.18;1.73;;;;;;;;;;4995588;28;20046;-72
2022/09/01 07:30:14;;;;;;;8.80;2.25;;;;;;;;;;4962483;28;20481;-73
2022/09/01 07:32:42;;;;;;;5.75;1.98;;;;;;;;;;4958821;28;20050;-72
2022/09/01 07:35:09;;;;;;;6.95;1.98;;;;;;;;;;4981992;28;20460;-72
2022/09/01 07:37:38;;;;;;;5.50;1.52;;;;;;;;;;4977545;28;20101;-72
2022/09/01 07:40:05;;;;;;;6.88;1.92;;;;;;;;;;4978138;28;20070;-72
2022/09/01 07:42:32;;;;;;;7.47;2.05;;;;;;;;;;4995239;28;20056;-72
2022/09/01 07:44:59;;;;;;;9.40;1.90;;;;;;;;;;4975257;28;20100;-72
2022/09/01 07:47:28;;;;;;;6.60;1.70;;;;;;;;;;4975910;28;20054;-72
2022/09/01 07:49:54;;;;;;;4.72;1.60;;;;;;;;;;5012291;28;20049;-72
2022/09/01 07:52:20;;;;;;;12.60;1.90;;;;;;;;;;4994896;28;20053;-72
2022/09/01 07:54:46;;;;;;;6.38;1.60;;;;;;;;;;4995244;28;20050;-72
2022/09/01 07:57:14;;;;;;;5.07;1.60;;;;;;;;;;4961760;28;20039;-72
2022/09/01 07:59:41;;;;;;;5.90;1.70;;;;;;;;;;4994248;28;20058;-72
2022/09/01 08:02:09;;;;;;;5.60;1.55;;;;;;;;;;4994063;28;20047;-71
2022/09/01 08:04:35;;;;;;;5.47;1.75;;;;;;;;;;4987560;28;20530;-72
2022/09/01 08:07:01;;;;;;;5.88;1.60;;;;;;;;;;4980458;28;20441;-71
2022/09/01 08:09:27;;;;;;;4.15;1.60;;;;;;;;;;4956735;28;20153;-72
2022/09/01 08:11:53;;;;;;;7.85;1.90;;;;;;;;;;4973821;28;20157;-72
2022/09/01 08:14:19;;;;;;;6.40;1.83;;;;;;;;;;4975508;28;20057;-71
2022/09/01 08:16:45;;;;;;;7.55;1.60;;;;;;;;;;4989396;28;20039;-71
2022/09/01 08:19:11;;;;;;;5.95;2.00;;;;;;;;;;4993035;28;20054;-71
2022/09/01 08:21:39;;;;;;;5.57;1.60;;;;;;;;;;4994248;28;20038;-71
2022/09/01 08:24:05;;;;;;;6.20;1.67;;;;;;;;;;4994735;28;20109;-71
2022/09/01 08:26:31;;;;;;;6.45;1.40;;;;;;;;;;4976471;28;20039;-72
2022/09/01 08:28:57;;;;;;;7.20;1.60;;;;;;;;;;4992906;28;20478;-71
2022/09/01 08:31:24;;;;;;;5.50;1.58;;;;;;;;;;4994189;28;20082;-71
2022/09/01 08:33:51;;;;;;;3.50;1.00;;;;;;;;;;4993171;28;20188;-71
2022/09/01 08:36:20;;;;;;;5.88;1.33;;;;;;;;;;4960713;28;20069;-71
2022/09/01 08:38:46;;;;;;;5.43;1.17;;;;;;;;;;4993616;28;20043;-71
2022/09/01 08:41:16;;;;;;;4.93;1.30;;;;;;;;;;4993288;28;20050;-71
2022/09/01 08:43:45;;;;;;;4.22;1.00;;;;;;;;;;4993667;28;20524;-71
2022/09/01 08:46:23;;;;;;;6.32;1.27;;;;;;;;;;4990743;28;20069;-71
2022/09/01 08:48:51;;;;;;;3.95;1.40;;;;;;;;;;4974663;28;20498;-71
2022/09/01 08:51:23;;;;;;;7.55;1.40;;;;;;;;;;4974801;28;20477;-71
2022/09/01 08:53:58;;;;;;;3.28;1.13;;;;;;;;;;4974783;28;20406;-71
2022/09/01 08:56:25;;;;;;;5.70;1.23;;;;;;;;;;4957267;28;20102;-71
2022/09/01 08:58:51;;;;;;;4.45;0.93;;;;;;;;;;4974789;28;20061;-70
2022/09/01 09:01:26;;;;;;;6.03;1.10;;;;;;;;;;4988614;28;20053;-71
2022/09/01 09:03:54;;;;;;;4.45;1.02;;;;;;;;;;4981563;28;20129;-71
2022/09/01 09:06:56;;;;;;;5.75;0.90;;;;;;;;;;4991066;28;20079;-70
2022/09/01 09:09:27;;;;;;;6.50;0.95;;;;;;;;;;4895906;29;20128;-70
2022/09/01 09:12:03;;;;;;;5.45;1.17;;;;;;;;;;4890734;29;20485;-69
2022/09/01 09:14:47;;;;;;;6.45;0.75;;;;;;;;;;4895859;29;20147;-70
2022/09/01 09:17:15;;;;;;;5.45;1.20;;;;;;;;;;4894691;29;20527;-70
2022/09/01 09:19:43;;;;;;;3.65;0.90;;;;;;;;;;4879420;29;20049;-70
2022/09/01 09:22:11;;;;;;;5.88;0.90;;;;;;;;;;4895737;29;20160;-70
2022/09/01 09:24:50;;;;;;;7.32;1.75;;;;;;;;;;4894226;29;20048;-70
2022/09/01 09:27:29;;;;;;;6.03;0.77;;;;;;;;;;4874161;29;20045;-70
2022/09/01 09:30:09;;;;;;;5.00;1.05;;;;;;;;;;4895366;29;20069;-70
2022/09/01 09:33:04;;;;;;;4.75;0.90;;;;;;;;;;4894519;29;20057;-69
2022/09/01 09:35:31;;;;;;;3.50;0.80;;;;;;;;;;4892695;29;20389;-71
2022/09/01 09:38:18;;;;;;;3.40;0.90;;;;;;;;;;4879333;29;20053;-70
2022/09/01 09:40:58;;;;;;;7.75;1.00;;;;;;;;;;4895413;29;20052;-71
2022/09/01 09:43:25;;;;;;;2.97;0.80;;;;;;;;;;4946893;28;20649;-70
2022/09/01 09:46:11;;;;;;;6.05;1.23;;;;;;;;;;4993390;28;20046;-71
2022/09/01 09:48:37;;;;;;;4.53;0.90;;;;;;;;;;4993064;28;20072;-70
2022/09/01 09:51:21;;;;;;;3.95;0.85;;;;;;;;;;4991879;28;20446;-70
2022/09/01 09:53:48;;;;;;;4.10;0.70;;;;;;;;;;4993037;28;20125;-70
2022/09/01 09:56:24;;;;;;;3.90;0.88;;;;;;;;;;4992840;28;20423;-70
2022/09/01 09:58:51;;;;;;;5.97;0.80;;;;;;;;;;4992240;28;20116;-70
2022/09/01 10:01:24;;;;;;;3.00;0.63;;;;;;;;;;4990427;28;20054;-70
2022/09/01 10:03:55;;;;;;;5.50;0.77;;;;;;;;;;4991919;28;20510;-69
2022/09/01 10:06:21;;;;;;;;;;;;;;;;;;4989994;28;20108;-67
2022/09/01 10:08:47;;;;;;;2.85;0.80;;;;;;;;;;4992472;28;19926;-68
2022/09/01 10:11:49;;;;;;;3.53;1.02;;;;;;;;;;4992098;28;20054;-68
2022/09/01 10:14:24;;;;;;;4.22;0.90;;;;;;;;;;4894818;29;20057;-68
2022/09/01 10:16:53;;;;;;;3.92;0.93;;;;;;;;;;4893916;29;20455;-69
2022/09/01 10:19:20;;;;;;;3.38;0.80;;;;;;;;;;4891696;29;20041;-69
2022/09/01 10:21:46;;;;;;;2.38;0.70;;;;;;;;;;4890823;29;20151;-67
2022/09/01 10:24:12;;;;;;;5.82;0.80;;;;;;;;;;4881239;29;20059;-68
2022/09/01 10:26:40;;;;;;;4.00;0.90;;;;;;;;;;4890244;29;20049;-68
2022/09/01 10:29:06;;;;;;;3.38;0.77;;;;;;;;;;4876449;29;20053;-67
2022/09/01 10:31:32;;;;;;;4.00;1.00;;;;;;;;;;4891869;29;20486;-68
2022/09/01 10:34:01;;;;;;;4.35;0.90;;;;;;;;;;4879379;29;20119;-68
2022/09/01 10:36:27;;;;;;;5.40;0.90;;;;;;;;;;4894841;29;20084;-68
2022/09/01 10:38:55;;;;;;;3.42;0.70;;;;;;;;;;4879034;29;20056;-69
2022/09/01 10:41:39;;;;;;;4.70;0.73;;;;;;;;;;4892623;29;20093;-69
2022/09/01 10:44:10;;;;;;;3.35;0.70;;;;;;;;;;4892963;29;20076;-68
2022/09/01 10:46:36;;;;;;;3.88;0.93;;;;;;;;;;4862581;29;20089;-68
2022/09/01 10:49:12;;;;;;;4.57;0.73;;;;;;;;;;4956496;28;20046;-68
2022/09/01 10:51:43;;;;;;;5.93;1.00;;;;;;;;;;4988996;28;20553;-68
2022/09/01 10:54:29;;;;;;;4.55;0.80;;;;;;;;;;4983378;28;20054;-69
2022/09/01 10:56:56;;;;;;;6.70;0.95;;;;;;;;;;4988113;28;20093;-69
2022/09/01 10:59:22;;;;;;;4.22;0.93;;;;;;;;;;4991174;28;20512;-69
2022/09/01 11:01:48;;;;;;;4.43;0.90;;;;;;;;;;4989128;28;20153;-70
2022/09/01 11:04:22;;;;;;;7.82;0.90;;;;;;;;;;4973712;28;20061;-69
2022/09/01 11:06:53;;;;;;;7.70;1.00;;;;;;;;;;4987340;28;20062;-69
2022/09/01 11:09:24;;;;;;;4.40;1.02;;;;;;;;;;4977886;28;20472;-69
2022/09/01 11:11:50;;;;;;;;;;;;;;;;;;4988014;28;20058;-67
2022/09/01 11:14:21;;;;;;;5.18;0.80;;;;;;;;;;4991399;28;19922;-68
2022/09/01 11:17:06;;;;;;;4.15;0.73;;;;;;;;;;4991598;28;20065;-71
2022/09/01 11:19:41;;;;;;;3.47;0.88;;;;;;;;;;4988016;28;20062;-69
2022/09/01 11:22:10;;;;;;;3.00;0.90;;;;;;;;;;4973645;28;20151;-68
2022/09/01 11:24:40;;;;;;;5.05;1.00;;;;;;;;;;4992363;28;20108;-69
2022/09/01 11:27:07;;;;;;;4.95;0.80;;;;;;;;;;4991313;28;20101;-69
2022/09/01 11:29:54;;;;;;;3.38;0.80;;;;;;;;;;4991924;28;20074;-68
2022/09/01 11:32:21;;;;;;;4.05;0.90;;;;;;;;;;4974446;28;20098;-69
2022/09/01 11:34:49;;;;;;;6.10;0.82;;;;;;;;;;4993733;28;20068;-69
2022/09/01 11:37:16;;;;;;;4.32;0.93;;;;;;;;;;4994590;28;20064;-71
2022/09/01 11:39:46;;;;;;;2.65;0.70;;;;;;;;;;4994089;28;20452;-72
2022/09/01 11:42:25;;;;;;;4.10;0.98;;;;;;;;;;4992900;28;20038;-68
2022/09/01 11:45:13;;;;;;;3.85;1.10;;;;;;;;;;4983105;28;20051;-70
2022/09/01 11:47:49;;;;;;;3.17;0.73;;;;;;;;;;4975747;28;20095;-69
2022/09/01 11:50:23;;;;;;;2.67;0.70;;;;;;;;;;4971984;28;20038;-68
2022/09/01 11:52:54;;;;;;;3.38;0.70;;;;;;;;;;4990764;28;20560;-69
2022/09/01 11:55:31;;;;;;;3.88;0.90;;;;;;;;;;4995167;28;20100;-69
2022/09/01 11:57:57;;;;;;;3.75;0.80;;;;;;;;;;4961863;28;20093;-69
2022/09/01 12:00:42;;;;;;;6.57;1.00;;;;;;;;;;4994907;28;20053;-68
2022/09/01 12:03:28;;;;;;;5.25;0.95;;;;;;;;;;4958203;28;20043;-68
2022/09/01 12:06:05;;;;;;;5.68;0.98;;;;;;;;;;4985000;28;20513;-69
2022/09/01 12:08:32;;;;;;;3.78;0.80;;;;;;;;;;4993814;28;20090;-72
2022/09/01 12:11:09;;;;;;;3.95;0.80;;;;;;;;;;4994951;28;20080;-69
2022/09/01 12:13:36;;;;;;;2.97;0.88;;;;;;;;;;4995179;28;20054;-69
2022/09/01 12:16:04;;;;;;;4.85;0.73;;;;;;;;;;4992319;28;20047;-69
2022/09/01 12:18:33;;;;;;;2.28;0.70;;;;;;;;;;4994373;28;20046;-69
2022/09/01 12:21:01;;;;;;;9.52;1.02;;;;;;;;;;4966326;28;20047;-68
2022/09/01 12:23:27;;;;;;;4.05;0.80;;;;;;;;;;4976601;28;20058;-69
2022/09/01 12:25:54;;;;;;;4.70;0.85;;;;;;;;;;4992926;28;20049;-69
2022/09/01 12:28:22;;;;;;;3.85;0.80;;;;;;;;;;4991522;28;20130;-68
2022/09/01 12:30:48;;;;;;;6.78;0.93;;;;;;;;;;4993705;28;20058;-69
2022/09/01 12:33:17;;;;;;;3.20;0.70;;;;;;;;;;4994049;28;20062;-69
2022/09/01 12:35:44;;;;;;;4.22;0.88;;;;;;;;;;4993335;28;20058;-70
2022/09/01 12:38:21;;;;;;;4.72;0.80;;;;;;;;;;4982681;28;20161;-70
2022/09/01 12:40:55;;;;;;;3.63;0.80;;;;;;;;;;4994612;28;20045;-69
2022/09/01 12:43:31;;;;;;;2.60;0.68;;;;;;;;;;4980211;28;20276;-70
2022/09/01 12:46:00;;;;;;;4.60;0.85;;;;;;;;;;4974540;28;20053;-68
2022/09/01 12:48:30;;;;;;;4.57;0.65;;;;;;;;;;4991947;28;20050;-68
2022/09/01 12:51:15;;;;;;;2.75;0.70;;;;;;;;;;4994212;28;20089;-67
2022/09/01 12:53:50;;;;;;;5.40;0.80;;;;;;;;;;4974960;28;20082;-68
2022/09/01 12:56:37;;;;;;;3.47;0.70;;;;;;;;;;4976051;28;20103;-69
2022/09/01 12:59:14;;;;;;;3.17;0.77;;;;;;;;;;4993293;28;20133;-68
2022/09/01 13:01:41;;;;;;;4.00;0.70;;;;;;;;;;4991221;28;20069;-69
2022/09/01 13:04:12;;;;;;;3.97;0.80;;;;;;;;;;4974597;28;20054;-69
2022/09/01 13:06:38;;;;;;;2.95;0.75;;;;;;;;;;4974538;28;20043;-69
2022/09/01 13:09:04;;;;;;;3.03;0.60;;;;;;;;;;4974511;28;20055;-70
2022/09/01 13:11:30;;;;;;;2.33;0.70;;;;;;;;;;4985609;28;20128;-68
2022/09/01 13:13:56;;;;;;;2.70;0.80;;;;;;;;;;4974092;28;20050;-69
2022/09/01 13:16:22;;;;;;;1.88;0.70;;;;;;;;;;4975488;28;20047;-69
2022/09/01 13:18:48;;;;;;;3.00;0.80;;;;;;;;;;4992802;28;20046;-71
2022/09/01 13:21:15;;;;;;;4.43;0.68;;;;;;;;;;4993760;28;20057;-68
2022/09/01 13:23:41;;;;;;;4.07;0.60;;;;;;;;;;4993631;28;20046;-68
2022/09/01 13:26:07;;;;;;;2.50;0.60;;;;;;;;;;4992980;28;20058;-69
2022/09/01 13:28:33;;;;;;;4.47;0.80;;;;;;;;;;4975869;28;20517;-67
2022/09/01 13:31:04;;;;;;;4.03;0.60;;;;;;;;;;4959336;28;20054;-69
2022/09/01 13:33:30;;;;;;;4.72;0.82;;;;;;;;;;4992507;28;20057;-69
2022/09/01 13:35:56;;;;;;;3.55;0.80;;;;;;;;;;4993620;28;20047;-69
2022/09/01 13:38:23;;;;;;;5.85;0.80;;;;;;;;;;4992881;28;20054;-68
2022/09/01 13:40:50;;;;;;;4.25;0.70;;;;;;;;;;4991748;28;20117;-70
2022/09/01 13:43:18;;;;;;;4.18;0.77;;;;;;;;;;4990950;28;20046;-67
2022/09/01 13:45:47;;;;;;;5.78;0.70;;;;;;;;;;4991046;28;20609;-68
2022/09/01 13:48:14;;;;;;;4.22;0.70;;;;;;;;;;4985825;28;20060;-68
2022/09/01 13:50:40;;;;;;;2.60;0.90;;;;;;;;;;4975523;28;20054;-67
2022/09/01 13:53:07;;;;;;;3.15;0.70;;;;;;;;;;4993087;28;20147;-67
2022/09/01 13:55:37;;;;;;;3.35;0.60;;;;;;;;;;4990166;28;20049;-70
2022/09/01 13:58:03;;;;;;;2.50;0.60;;;;;;;;;;4990968;28;20042;-69
2022/09/01 14:00:31;;;;;;;2.17;0.60;;;;;;;;;;4991940;28;20050;-69
2022/09/01 14:02:59;;;;;;;5.88;0.80;;;;;;;;;;4985316;28;20049;-68
2022/09/01 14:05:26;;;;;;;3.00;0.60;;;;;;;;;;4964139;28;20050;-68
2022/09/01 14:07:53;;;;;;;3.35;0.80;;;;;;;;;;4992860;28;20042;-68
2022/09/01 14:10:20;;;;;;;3.30;0.70;;;;;;;;;;4992391;28;20038;-69
2022/09/01 14:12:46;;;;;;;2.85;0.77;;;;;;;;;;4987723;28;20047;-68
2022/09/01 14:15:14;;;;;;;5.47;0.70;;;;;;;;;;4987531;28;20583;-68
2022/09/01 14:17:40;;;;;;;4.85;0.60;;;;;;;;;;4992195;28;20421;-69
2022/09/01 14:20:07;;;;;;;3.53;0.68;;;;;;;;;;4983388;28;20042;-69
2022/09/01 14:22:34;;;;;;;6.68;0.90;;;;;;;;;;4972891;28;20117;-69
2022/09/01 14:25:00;;;;;;;17.13;1.48;;;;;;;;;;4955161;28;20478;-68
2022/09/01 14:27:26;;;;;;;28.85;1.80;;;;;;;;;;4992477;28;20111;-68
2022/09/01 14:29:53;;;;;;;14.40;1.10;;;;;;;;;;4990715;28;20046;-69
2022/09/01 14:32:25;;;;;;;6.75;0.70;;;;;;;;;;4974949;28;20050;-69
2022/09/01 14:34:52;;;;;;;9.32;1.00;;;;;;;;;;4988599;28;20112;-69
2022/09/01 14:37:18;;;;;;;3.42;0.60;;;;;;;;;;4973762;28;20058;-70
2022/09/01 14:39:49;;;;;;;9.25;0.93;;;;;;;;;;4978364;28;20123;-68
2022/09/01 14:42:15;;;;;;;4.45;0.65;;;;;;;;;;4983919;28;20045;-69
2022/09/01 14:44:42;;;;;;;2.70;0.63;;;;;;;;;;4990394;28;20034;-69
2022/09/01 14:47:08;;;;;;;4.65;0.63;;;;;;;;;;4992574;28;20058;-69
2022/09/01 14:49:35;;;;;;;7.22;0.80;;;;;;;;;;4992293;28;20177;-69
2022/09/01 14:52:03;;;;;;;3.42;0.60;;;;;;;;;;4972188;28;20082;-69
2022/09/01 14:54:29;;;;;;;2.97;0.55;;;;;;;;;;4992468;28;20062;-69
2022/09/01 14:56:55;;;;;;;3.22;0.75;;;;;;;;;;4991933;28;20512;-70
2022/09/01 14:59:21;;;;;;;4.25;0.82;;;;;;;;;;4992453;28;20038;-69
2022/09/01 15:01:48;;;;;;;2.75;0.55;;;;;;;;;;4992424;28;20399;-68